Time;durP1;ratioP1;P1;durP2;ratioP2;P2;SDS_P1;SDS_P2;PMS_P1;PMS_P2;Temp;Humidity;BMP_temperature;BMP_pressure;BME280_temperature;BME280_humidity;BME280_pressure;Samples;Min_cycle;Max_cycle;Signal;HPM_P1;HPM_P2
2022/04/30 00:02:15;;;;;;;17.10;13.97;;;;;;;17.11;53.29;94937.56;5079775;28;20173;-74
2022/04/30 00:04:43;;;;;;;16.60;14.80;;;;;;;16.87;53.79;94931.41;5071639;28;20177;-74
2022/04/30 00:07:11;;;;;;;17.17;15.40;;;;;;;16.66;54.70;94931.91;5081162;28;20178;-75
2022/04/30 00:09:37;;;;;;;16.17;14.50;;;;;;;16.56;54.47;94930.63;5080870;28;20486;-75
2022/04/30 00:12:03;;;;;;;15.93;14.30;;;;;;;16.39;55.14;94930.44;5056333;28;20946;-74
2022/04/30 00:14:29;;;;;;;17.50;15.33;;;;;;;16.46;54.94;94929.53;5075877;28;20880;-74
2022/04/30 00:19:39;;;;;;;19.30;16.80;;;;;;;16.42;55.36;94928.38;5077432;28;20419;-75
2022/04/30 00:22:05;;;;;;;21.23;18.53;;;;;;;16.20;56.51;94934.09;5075261;28;20514;-74
2022/04/30 00:24:31;;;;;;;17.47;15.20;;;;;;;16.12;56.58;94927.28;5079394;28;20177;-76
2022/04/30 00:26:58;;;;;;;18.73;15.73;;;;;;;16.34;56.01;94922.34;5074787;28;20204;-74
2022/04/30 00:29:24;;;;;;;17.67;15.90;;;;;;;16.38;55.78;94931.44;5075948;28;20193;-75
2022/04/30 00:31:50;;;;;;;18.10;15.63;;;;;;;16.13;56.45;94934.19;5072841;28;20948;-75
2022/04/30 00:34:16;;;;;;;19.90;16.70;;;;;;;16.34;56.29;94937.41;5072483;28;20213;-74
2022/04/30 00:36:41;;;;;;;19.37;17.00;;;;;;;16.38;56.02;94935.94;5072809;28;20423;-73
2022/04/30 00:39:07;;;;;;;19.47;17.47;;;;;;;16.35;55.82;94931.09;5078224;28;20475;-75
2022/04/30 00:41:33;;;;;;;18.53;16.40;;;;;;;16.27;56.19;94934.84;5080296;28;20681;-75
2022/04/30 00:43:59;;;;;;;19.57;16.30;;;;;;;16.22;56.33;94936.53;5072460;28;20186;-74
2022/04/30 00:46:25;;;;;;;21.70;18.60;;;;;;;16.27;56.23;94928.75;5073243;28;20197;-76
2022/04/30 00:48:53;;;;;;;18.57;15.67;;;;;;;16.29;56.36;94921.41;5073049;28;20452;-74
2022/04/30 00:51:21;;;;;;;18.40;15.33;;;;;;;16.42;55.75;94931.81;5053042;28;20179;-74
2022/04/30 00:53:50;;;;;;;22.43;15.90;;;;;;;16.41;55.58;94922.28;5063720;28;20420;-75
2022/04/30 00:56:21;;;;;;;19.23;15.00;;;;;;;16.25;56.17;94915.78;5052220;28;20481;-74
2022/04/30 00:58:48;;;;;;;19.53;15.73;;;;;;;16.27;56.01;94918.19;5055744;28;20409;-74
2022/04/30 01:01:18;;;;;;;17.77;14.70;;;;;;;15.97;56.93;94922.41;5053956;28;20455;-74
2022/04/30 01:03:43;;;;;;;17.43;15.00;;;;;;;15.91;56.87;94925.91;5032542;28;20426;-75
2022/04/30 01:06:10;;;;;;;15.87;14.17;;;;;;;16.06;56.40;94924.75;5053159;28;20492;-74
2022/04/30 01:08:37;;;;;;;15.43;11.93;;;;;;;16.07;56.10;94919.25;5058410;28;20175;-74
2022/04/30 01:11:04;;;;;;;16.40;13.67;;;;;;;16.19;55.34;94917.47;5064025;28;20432;-75
2022/04/30 01:13:36;;;;;;;14.33;12.87;;;;;;;16.16;56.04;94922.38;5050497;28;20450;-75
2022/04/30 01:16:04;;;;;;;17.13;14.33;;;;;;;16.19;55.77;94917.47;5049936;28;20523;-75
2022/04/30 01:18:29;;;;;;;13.73;12.30;;;;;;;15.97;56.44;94911.03;5049481;28;20421;-74
2022/04/30 01:21:01;;;;;;;12.80;11.50;;;;;;;15.84;57.00;94914.66;5042614;28;20447;-74
2022/04/30 01:23:27;;;;;;;13.37;12.00;;;;;;;15.84;56.38;94914.66;5046644;28;20239;-74
2022/04/30 01:25:53;;;;;;;12.77;11.43;;;;;;;15.90;56.01;94912.97;5058478;28;20443;-74
2022/04/30 01:28:20;;;;;;;14.63;11.43;;;;;;;15.88;56.03;94915.00;5048005;28;20589;-74
2022/04/30 01:30:46;;;;;;;15.70;12.13;;;;;;;15.79;56.17;94915.28;5053587;28;20465;-75
2022/04/30 01:38:40;;;;;;;13.57;12.23;;;;;;;15.83;55.75;94915.66;5052792;28;20432;-74
2022/04/30 01:41:06;;;;;;;13.90;11.63;;;;;;;15.65;56.15;94911.16;5067928;28;20432;-74
2022/04/30 01:43:33;;;;;;;13.53;11.37;;;;;;;15.67;56.03;94909.13;5057302;28;20428;-74
2022/04/30 01:46:01;;;;;;;11.90;9.90;;;;;;;15.79;55.82;94912.66;5066958;28;20439;-74
2022/04/30 01:48:27;;;;;;;13.00;11.63;;;;;;;15.58;56.13;94910.44;5055583;28;20451;-74
2022/04/30 01:50:54;;;;;;;12.00;10.80;;;;;;;15.62;55.93;94908.97;5062830;28;20446;-74
2022/04/30 01:53:19;;;;;;;13.10;11.40;;;;;;;15.72;56.20;94908.44;5050855;28;20179;-74
2022/04/30 01:55:45;;;;;;;12.60;11.30;;;;;;;14.90;58.39;94904.13;5078328;28;20463;-74
2022/04/30 01:58:11;;;;;;;15.17;12.43;;;;;;;14.94;58.71;94915.84;5074126;28;20208;-74
2022/04/30 02:00:36;;;;;;;14.07;11.83;;;;;;;15.20;58.26;94906.91;5080576;28;20233;-74
2022/04/30 02:03:07;;;;;;;17.10;13.00;;;;;;;15.31;57.55;94908.06;5074026;28;20189;-74
2022/04/30 02:05:34;;;;;;;16.13;12.60;;;;;;;15.11;58.31;94904.78;5084044;28;20264;-75
2022/04/30 02:08:05;;;;;;;17.17;13.03;;;;;;;15.24;58.49;94909.94;5082908;28;20462;-74
2022/04/30 02:10:31;;;;;;;14.93;13.03;;;;;;;15.25;58.49;94911.53;5073261;28;20451;-74
2022/04/30 02:12:58;;;;;;;16.93;12.80;;;;;;;15.08;58.33;94918.38;5071272;28;20460;-74
2022/04/30 02:15:26;;;;;;;16.03;13.37;;;;;;;15.11;58.47;94915.31;5074687;28;20543;-74
2022/04/30 02:17:52;;;;;;;14.30;12.90;;;;;;;15.10;58.40;94913.69;5087546;28;20423;-74
2022/04/30 02:20:24;;;;;;;12.53;11.23;;;;;;;15.27;58.30;94909.50;5084121;28;20416;-74
2022/04/30 02:22:51;;;;;;;17.33;12.60;;;;;;;15.19;58.10;94905.28;5055934;28;20511;-74
2022/04/30 02:25:18;;;;;;;14.73;13.10;;;;;;;14.98;58.96;94910.97;5071397;28;20427;-74
2022/04/30 02:28:04;;;;;;;15.03;13.53;;;;;;;15.18;58.91;94902.91;5080573;28;20427;-74
2022/04/30 02:30:35;;;;;;;15.50;13.87;;;;;;;14.71;59.73;94905.88;5079202;28;20471;-74
2022/04/30 02:33:09;;;;;;;18.10;13.00;;;;;;;14.80;58.79;94898.53;5054568;28;20452;-74
2022/04/30 02:35:38;;;;;;;18.57;13.90;;;;;;;14.86;59.43;94907.41;5087410;28;20408;-74
2022/04/30 02:38:08;;;;;;;14.57;12.97;;;;;;;14.87;59.42;94901.91;5058407;28;20427;-73
2022/04/30 02:40:35;;;;;;;13.50;12.10;;;;;;;14.96;58.74;94897.19;5067229;28;20450;-74
2022/04/30 02:43:08;;;;;;;14.37;12.87;;;;;;;14.96;58.25;94902.47;5068532;28;20481;-74
2022/04/30 02:45:38;;;;;;;17.77;12.87;;;;;;;14.90;58.84;94901.50;5076571;28;20450;-74
2022/04/30 02:48:06;;;;;;;19.83;13.97;;;;;;;14.91;58.81;94904.94;5080822;28;20426;-74
2022/04/30 02:50:33;;;;;;;18.37;13.90;;;;;;;14.98;58.15;94903.06;5070273;28;20460;-74
2022/04/30 02:52:59;;;;;;;14.73;12.13;;;;;;;14.72;59.50;94901.41;5055590;28;20425;-75
2022/04/30 02:55:25;;;;;;;16.90;13.00;;;;;;;14.80;59.08;94898.53;5052306;28;20473;-75
2022/04/30 03:00:42;;;;;;;16.43;13.60;;;;;;;14.80;59.04;94895.91;5071076;28;20424;-74
2022/04/30 03:03:12;;;;;;;16.87;14.67;;;;;;;14.69;59.39;94902.66;5048661;28;20409;-74
2022/04/30 03:05:43;;;;;;;15.90;13.70;;;;;;;14.56;59.30;94900.88;5075837;28;20436;-74
2022/04/30 03:08:29;;;;;;;15.50;13.17;;;;;;;14.48;60.30;94892.44;5052700;28;20420;-74
2022/04/30 03:10:56;;;;;;;16.33;14.63;;;;;;;14.20;60.79;94894.41;5072624;28;20591;-74
2022/04/30 03:13:24;;;;;;;17.70;14.20;;;;;;;14.52;59.32;94889.16;5066075;28;20432;-74
2022/04/30 03:15:51;;;;;;;16.90;13.20;;;;;;;14.47;59.62;94888.97;5067280;28;20428;-74
2022/04/30 03:23:47;;;;;;;17.53;13.63;;;;;;;14.37;60.40;94886.03;5066449;28;20460;-74
2022/04/30 03:26:13;;;;;;;18.23;14.03;;;;;;;14.27;60.49;94888.31;5075568;28;20428;-74
2022/04/30 03:28:41;;;;;;;17.70;14.80;;;;;;;14.39;60.43;94895.31;5066549;28;20559;-74
2022/04/30 03:31:10;;;;;;;16.90;14.27;;;;;;;14.13;60.96;94893.63;5065854;28;20433;-75
2022/04/30 03:33:36;;;;;;;16.40;13.47;;;;;;;14.30;60.08;94904.47;5066088;28;20475;-74
2022/04/30 03:36:02;;;;;;;14.10;11.57;;;;;;;14.37;60.18;94899.97;5081617;28;20453;-74
2022/04/30 03:38:28;;;;;;;14.57;13.07;;;;;;;14.15;60.29;94903.94;5069377;28;20421;-74
2022/04/30 03:40:54;;;;;;;17.57;13.00;;;;;;;14.03;61.56;94909.88;5075497;28;20520;-74
2022/04/30 03:43:19;;;;;;;18.37;14.07;;;;;;;14.11;61.04;94905.38;5053223;28;20201;-74
2022/04/30 03:45:45;;;;;;;18.90;14.40;;;;;;;14.17;60.47;94915.91;5087480;28;20179;-74
2022/04/30 03:48:12;;;;;;;14.50;13.00;;;;;;;14.18;60.39;94916.69;5060744;28;20186;-74
2022/04/30 03:50:38;;;;;;;18.00;13.37;;;;;;;13.95;61.57;94918.00;5065968;28;20510;-74
2022/04/30 03:53:04;;;;;;;14.97;13.07;;;;;;;14.30;60.09;94914.19;5079746;28;20420;-74
2022/04/30 03:55:30;;;;;;;15.10;12.60;;;;;;;14.23;60.15;94914.25;5072582;28;20461;-74
2022/04/30 03:57:55;;;;;;;14.33;12.77;;;;;;;13.92;61.61;94917.59;5065418;28;20240;-74
2022/04/30 04:00:21;;;;;;;15.13;12.60;;;;;;;14.05;61.14;94917.56;5076640;28;20459;-74
2022/04/30 04:02:47;;;;;;;18.40;13.10;;;;;;;14.00;60.77;94914.72;5063905;28;20179;-74
2022/04/30 04:05:13;;;;;;;16.17;12.90;;;;;;;14.01;61.27;94929.50;5070952;28;20512;-74
2022/04/30 04:07:39;;;;;;;19.70;13.70;;;;;;;14.23;60.49;94915.03;5065815;28;20190;-75
2022/04/30 04:10:06;;;;;;;17.60;14.83;;;;;;;14.42;60.19;94913.34;5065226;28;20464;-74
2022/04/30 04:12:31;;;;;;;14.33;12.33;;;;;;;14.50;59.23;94919.38;5071044;28;20850;-74
2022/04/30 04:17:41;;;;;;;15.83;13.33;;;;;;;14.59;59.48;94912.88;5072029;28;20196;-75
2022/04/30 04:20:13;;;;;;;15.47;12.80;;;;;;;14.77;58.55;94912.13;5076190;28;20424;-74
2022/04/30 04:22:39;;;;;;;16.20;13.20;;;;;;;14.84;58.61;94916.31;5068672;28;20644;-74
2022/04/30 04:27:57;;;;;;;14.40;12.87;;;;;;;14.94;58.47;94923.75;5066792;28;20436;-74
2022/04/30 04:30:27;;;;;;;14.23;12.73;;;;;;;15.19;58.15;94925.59;5065032;28;20459;-74
2022/04/30 04:32:54;;;;;;;14.23;12.67;;;;;;;15.25;57.80;94922.06;5065066;28;20432;-74
2022/04/30 04:35:20;;;;;;;14.80;13.20;;;;;;;15.20;58.09;94916.66;5074441;28;20801;-74
2022/04/30 04:37:46;;;;;;;16.50;13.97;;;;;;;15.38;57.03;94916.69;5071119;28;20470;-74
2022/04/30 04:40:13;;;;;;;19.17;14.23;;;;;;;15.37;57.14;94917.72;5076708;28;20170;-74
2022/04/30 04:42:40;;;;;;;15.77;13.17;;;;;;;15.57;56.85;94919.34;5048107;28;20500;-74
2022/04/30 04:45:07;;;;;;;23.13;13.87;;;;;;;15.64;56.41;94922.72;5070140;28;20930;-74
2022/04/30 04:47:34;;;;;;;14.27;12.63;;;;;;;15.76;56.48;94923.66;5071225;28;20427;-75
2022/04/30 04:50:04;;;;;;;16.90;12.53;;;;;;;15.82;55.68;94919.31;5065850;28;20452;-74
2022/04/30 04:52:29;;;;;;;20.00;13.73;;;;;;;15.69;56.25;94922.91;5066993;28;20927;-74
2022/04/30 04:54:55;;;;;;;18.50;15.80;;;;;;;15.72;56.53;94933.00;5065692;28;20473;-74
2022/04/30 04:57:20;;;;;;;16.53;14.80;;;;;;;15.46;57.31;94927.97;5066190;28;20186;-74
2022/04/30 04:59:46;;;;;;;14.87;13.17;;;;;;;15.76;56.46;94926.31;5084629;28;20173;-75
2022/04/30 05:02:11;;;;;;;15.00;13.40;;;;;;;15.66;56.31;94931.25;5073095;28;20205;-74
2022/04/30 05:04:37;;;;;;;16.67;13.50;;;;;;;15.87;55.76;94937.16;5084631;28;20177;-74
2022/04/30 05:07:03;;;;;;;18.20;14.20;;;;;;;15.94;55.88;94938.69;5074644;28;20185;-74
2022/04/30 05:09:31;;;;;;;15.90;12.80;;;;;;;15.73;55.91;94934.66;5083094;28;20227;-74
2022/04/30 05:12:01;;;;;;;17.17;13.70;;;;;;;15.85;56.04;94936.56;5071856;28;20187;-74
2022/04/30 05:14:36;;;;;;;15.63;13.70;;;;;;;16.18;55.12;94936.16;5064883;28;20448;-75
2022/04/30 05:17:04;;;;;;;14.87;13.00;;;;;;;16.18;54.49;94942.28;5077773;28;20423;-75
2022/04/30 05:19:30;;;;;;;15.90;14.23;;;;;;;16.51;54.46;94945.53;5072277;28;20424;-74
2022/04/30 05:21:55;;;;;;;15.20;12.40;;;;;;;16.90;53.43;94946.00;5076299;28;20428;-75
2022/04/30 05:24:20;;;;;;;19.40;13.30;;;;;;;16.87;53.56;94946.47;5077320;28;20447;-74
2022/04/30 05:26:49;;;;;;;15.33;12.70;;;;;;;16.77;53.19;94939.88;5066496;28;20187;-74
2022/04/30 05:29:15;;;;;;;16.53;14.50;;;;;;;17.05;52.65;94946.38;5070282;28;20210;-74
2022/04/30 05:31:41;;;;;;;14.47;12.97;;;;;;;17.10;52.73;94937.78;5066865;28;20431;-74
2022/04/30 05:34:06;;;;;;;16.00;13.33;;;;;;;17.63;51.32;94936.91;5056071;28;20488;-74
2022/04/30 05:36:32;;;;;;;15.23;13.60;;;;;;;17.33;51.95;94943.09;5058291;28;20492;-74
2022/04/30 05:38:59;;;;;;;15.63;13.03;;;;;;;17.53;50.94;94944.63;5072397;28;20186;-74
2022/04/30 05:41:25;;;;;;;15.20;13.70;;;;;;;16.99;52.24;94939.38;5071609;28;20269;-74
2022/04/30 05:43:50;;;;;;;16.30;14.60;;;;;;;17.25;52.21;94946.09;5072130;28;20421;-74
2022/04/30 05:46:16;;;;;;;16.23;14.10;;;;;;;17.45;51.72;94947.59;5067028;28;20494;-74
2022/04/30 05:48:41;;;;;;;17.03;15.33;;;;;;;17.91;50.32;94953.97;5063921;28;20932;-74
2022/04/30 05:51:07;;;;;;;15.73;13.80;;;;;;;17.70;50.82;94948.19;5067155;28;20189;-74
2022/04/30 05:53:32;;;;;;;16.77;14.63;;;;;;;17.80;50.39;94952.09;5045862;28;20179;-75
2022/04/30 05:55:58;;;;;;;15.60;13.90;;;;;;;17.05;52.18;94950.88;5064677;28;20233;-74
2022/04/30 05:58:24;;;;;;;15.93;14.23;;;;;;;17.64;51.00;94953.56;5063894;28;20183;-74
2022/04/30 06:00:49;;;;;;;19.13;14.50;;;;;;;17.99;49.90;94950.94;5075514;28;20194;-74
2022/04/30 06:03:15;;;;;;;17.53;15.10;;;;;;;17.95;50.21;94953.25;5064550;28;20432;-74
2022/04/30 06:05:41;;;;;;;16.70;14.13;;;;;;;17.83;50.74;94959.56;5062114;28;20258;-74
2022/04/30 06:08:06;;;;;;;13.87;12.30;;;;;;;18.13;49.61;94956.78;5062721;28;20205;-74
2022/04/30 06:10:32;;;;;;;18.83;15.17;;;;;;;17.76;50.76;94952.53;5062024;28;20199;-75
2022/04/30 06:12:58;;;;;;;15.70;14.00;;;;;;;18.18;49.56;94956.09;5075223;28;20185;-74
2022/04/30 06:15:24;;;;;;;21.43;14.93;;;;;;;17.89;50.37;94948.06;5077985;28;20181;-74
2022/04/30 06:17:50;;;;;;;17.27;13.60;;;;;;;17.99;50.42;94953.59;5083333;28;20455;-74
2022/04/30 06:20:15;;;;;;;16.00;14.30;;;;;;;17.35;51.51;94961.41;5066338;28;20178;-75
2022/04/30 06:22:41;;;;;;;18.83;15.40;;;;;;;17.30;52.32;94953.31;5075170;28;20178;-75
2022/04/30 06:25:07;;;;;;;15.87;14.13;;;;;;;17.55;51.30;94950.50;5081730;28;20185;-74
2022/04/30 06:27:33;;;;;;;17.50;14.30;;;;;;;18.25;50.87;94954.94;5074100;28;20181;-75
2022/04/30 06:29:59;;;;;;;17.00;14.10;;;;;;;17.87;50.83;94958.06;5086351;28;20482;-75
2022/04/30 06:32:25;;;;;;;16.87;13.90;;;;;;;18.00;50.73;94954.38;5067269;28;20261;-74
2022/04/30 06:34:51;;;;;;;15.30;11.83;;;;;;;18.02;50.33;94955.78;5084243;28;20499;-75
2022/04/30 06:37:17;;;;;;;16.80;15.00;;;;;;;18.11;50.60;94957.00;5078541;28;20511;-74
2022/04/30 06:39:43;;;;;;;17.90;13.50;;;;;;;18.46;49.45;94950.03;5066406;28;20183;-74
2022/04/30 06:42:09;;;;;;;12.97;11.73;;;;;;;18.83;47.97;94942.50;5070943;28;20177;-74
2022/04/30 06:44:34;;;;;;;15.90;12.50;;;;;;;19.60;46.11;94942.94;5077660;28;20471;-74
2022/04/30 06:47:00;;;;;;;13.17;11.83;;;;;;;18.60;47.60;94934.63;5069242;28;20187;-74
2022/04/30 06:49:25;;;;;;;16.00;13.27;;;;;;;19.52;45.78;94941.50;5066620;28;20190;-74
2022/04/30 06:51:51;;;;;;;12.93;11.63;;;;;;;19.19;46.01;94940.44;5078803;28;20178;-74
2022/04/30 06:57:07;;;;;;;11.80;10.60;;;;;;;18.80;45.36;94935.03;5068617;28;20189;-74
2022/04/30 06:59:37;;;;;;;12.43;11.00;;;;;;;19.13;44.98;94935.31;5050551;28;20409;-74
2022/04/30 07:02:11;;;;;;;12.13;10.30;;;;;;;19.17;44.67;94929.28;5085797;28;20466;-74
2022/04/30 07:04:38;;;;;;;11.70;10.50;;;;;;;19.86;43.68;94933.50;5074996;28;20446;-74
2022/04/30 07:07:04;;;;;;;12.03;10.83;;;;;;;19.83;43.18;94932.16;5084991;28;20463;-74
2022/04/30 07:09:32;;;;;;;11.07;9.93;;;;;;;19.54;43.29;94934.09;5085235;28;20463;-74
2022/04/30 07:11:59;;;;;;;13.47;10.33;;;;;;;18.97;44.17;94928.94;5083626;28;20447;-74
2022/04/30 07:14:25;;;;;;;11.93;10.73;;;;;;;19.40;43.78;94927.50;5064129;28;20432;-74
2022/04/30 07:16:50;;;;;;;12.83;11.33;;;;;;;19.76;42.80;94920.88;5079384;28;20439;-74
2022/04/30 07:19:15;;;;;;;12.20;11.00;;;;;;;20.24;42.05;94926.53;5065428;28;20191;-74
2022/04/30 07:21:41;;;;;;;12.20;10.90;;;;;;;20.25;41.96;94934.25;5070005;28;20183;-74
2022/04/30 07:24:06;;;;;;;10.90;10.00;;;;;;;20.50;41.06;94927.63;5068503;28;20613;-74
2022/04/30 07:26:32;;;;;;;11.87;10.77;;;;;;;20.26;41.60;94932.41;5074234;28;20178;-74
2022/04/30 07:28:57;;;;;;;15.37;8.83;;;;;;;20.16;41.23;94924.31;5081394;28;20207;-74
2022/04/30 07:31:23;;;;;;;10.17;9.10;;;;;;;20.86;40.17;94934.16;5071764;28;20204;-74
2022/04/30 07:33:51;;;;;;;14.13;10.23;;;;;;;20.81;40.45;94926.13;5071506;28;20186;-74
2022/04/30 07:36:17;;;;;;;10.13;9.13;;;;;;;21.05;39.72;94920.47;5075936;28;20178;-74
2022/04/30 07:38:43;;;;;;;9.93;9.10;;;;;;;20.78;39.83;94925.84;5073456;28;20494;-74
2022/04/30 07:41:08;;;;;;;10.50;9.27;;;;;;;20.36;40.33;94924.56;5076137;28;20429;-75
2022/04/30 07:43:34;;;;;;;11.17;10.10;;;;;;;20.37;40.73;94920.84;5054751;28;20186;-75
2022/04/30 07:45:59;;;;;;;13.30;11.67;;;;;;;20.42;40.79;94917.44;5077449;28;20233;-75
2022/04/30 07:48:25;;;;;;;9.87;8.87;;;;;;;20.06;41.42;94925.00;5079235;28;20200;-74
2022/04/30 07:50:52;;;;;;;9.23;8.33;;;;;;;19.95;41.24;94918.75;5081671;28;20275;-74
2022/04/30 07:53:19;;;;;;;13.70;10.60;;;;;;;20.47;40.58;94920.16;5076522;28;20530;-74
2022/04/30 07:55:44;;;;;;;11.47;10.20;;;;;;;20.82;39.33;94911.75;5071017;28;20511;-74
2022/04/30 07:58:10;;;;;;;10.30;9.37;;;;;;;20.05;40.92;94916.22;5065377;28;20425;-74
2022/04/30 08:00:36;;;;;;;9.37;8.40;;;;;;;20.44;39.53;94910.81;5076224;28;20169;-75
2022/04/30 08:03:03;;;;;;;9.97;9.00;;;;;;;20.58;39.83;94908.59;5070996;28;20174;-74
2022/04/30 08:05:29;;;;;;;10.27;9.30;;;;;;;20.48;39.94;94911.13;5082098;28;20293;-74
2022/04/30 08:07:55;;;;;;;16.53;10.13;;;;;;;21.05;39.24;94913.28;5068851;28;20424;-74
2022/04/30 08:10:22;;;;;;;11.23;9.93;;;;;;;21.32;38.69;94914.31;5074026;28;20212;-75
2022/04/30 08:12:51;;;;;;;10.60;9.30;;;;;;;21.05;38.97;94910.63;5090271;28;20425;-74
2022/04/30 08:15:16;;;;;;;11.30;10.10;;;;;;;21.28;39.22;94913.22;5047226;28;20441;-74
2022/04/30 08:17:42;;;;;;;12.03;10.53;;;;;;;22.21;37.50;94910.03;5077747;28;20422;-74
2022/04/30 08:20:08;;;;;;;9.70;8.80;;;;;;;21.47;38.53;94911.78;5077999;28;20178;-74
2022/04/30 08:22:34;;;;;;;11.17;9.10;;;;;;;22.51;36.34;94903.25;5082746;28;20676;-74
2022/04/30 08:25:01;;;;;;;10.57;9.37;;;;;;;22.59;35.93;94906.22;5072590;28;20424;-75
2022/04/30 08:27:26;;;;;;;9.47;8.53;;;;;;;22.90;35.37;94892.91;5069886;28;20433;-74
2022/04/30 08:29:51;;;;;;;13.83;9.50;;;;;;;22.42;35.31;94897.59;5067876;28;20488;-74
2022/04/30 08:32:19;;;;;;;9.50;8.50;;;;;;;22.07;36.07;94899.06;5054288;28;20193;-74
2022/04/30 08:34:45;;;;;;;9.70;8.83;;;;;;;21.88;36.30;94897.91;5072855;28;20186;-74
2022/04/30 08:37:10;;;;;;;9.50;8.50;;;;;;;21.97;36.05;94899.81;5078288;28;20446;-74
2022/04/30 08:39:36;;;;;;;9.63;8.30;;;;;;;22.05;35.62;94895.06;5087081;28;20192;-74
2022/04/30 08:42:04;;;;;;;12.13;9.70;;;;;;;22.38;35.68;94894.66;5083280;28;20205;-74
2022/04/30 08:44:30;;;;;;;9.43;8.53;;;;;;;22.62;35.16;94891.53;5073522;28;20218;-74
2022/04/30 08:46:56;;;;;;;8.90;7.30;;;;;;;23.03;34.44;94904.13;5080906;28;20974;-74
2022/04/30 08:49:22;;;;;;;8.40;7.60;;;;;;;22.99;34.51;94887.84;5073330;28;20206;-75
2022/04/30 08:51:47;;;;;;;9.50;8.37;;;;;;;22.54;35.87;94895.53;5068566;28;20423;-74
2022/04/30 08:54:13;;;;;;;9.53;8.40;;;;;;;21.97;36.95;94891.03;5074872;28;20600;-74
2022/04/30 08:56:38;;;;;;;8.53;7.83;;;;;;;22.55;35.70;94883.78;5077447;28;20291;-74
2022/04/30 08:59:07;;;;;;;9.50;8.50;;;;;;;22.70;36.20;94885.66;5076963;28;20185;-74
2022/04/30 09:01:50;;;;;;;8.67;7.93;;;;;;;22.65;37.46;94884.84;5078792;28;20188;-74
2022/04/30 09:04:16;;;;;;;10.67;7.40;;;;;;;20.66;41.10;94883.44;5077576;28;20488;-74
2022/04/30 09:06:49;;;;;;;9.23;8.53;;;;;;;20.46;42.16;94882.13;5055596;28;20440;-74
2022/04/30 09:09:41;;;;;;;8.03;7.00;;;;;;;21.70;39.95;94881.28;5073015;28;20499;-74
2022/04/30 09:12:07;;;;;;;7.97;7.27;;;;;;;22.21;38.82;94867.38;5066672;28;20503;-74
2022/04/30 09:14:33;;;;;;;11.53;10.20;;;;;;;22.15;38.24;94879.91;5046761;28;20435;-74
2022/04/30 09:17:02;;;;;;;7.63;6.93;;;;;;;22.80;37.43;94869.69;5077512;28;20436;-74
2022/04/30 09:19:27;;;;;;;7.37;6.60;;;;;;;23.15;36.16;94870.78;5090037;28;20173;-74
2022/04/30 09:21:53;;;;;;;15.30;7.03;;;;;;;23.13;36.24;94878.25;5066030;28;20438;-74
2022/04/30 09:24:18;;;;;;;6.83;6.30;;;;;;;23.05;36.29;94873.47;5079199;28;20174;-75
2022/04/30 09:26:44;;;;;;;9.13;7.30;;;;;;;22.60;37.15;94864.31;5080104;28;20196;-75
2022/04/30 09:29:23;;;;;;;8.27;6.67;;;;;;;22.64;36.89;94869.94;5073512;28;20205;-74
2022/04/30 09:31:53;;;;;;;11.93;6.70;;;;;;;23.74;35.14;94872.03;5074369;28;20612;-75
2022/04/30 09:39:49;;;;;;;8.07;7.33;;;;;;;24.10;34.28;94868.47;5082269;28;20434;-74
2022/04/30 09:42:15;;;;;;;7.57;6.23;;;;;;;21.89;37.46;94852.34;5066361;28;20456;-75
2022/04/30 09:44:40;;;;;;;5.40;5.00;;;;;;;23.03;35.37;94859.59;5074852;28;20486;-74
2022/04/30 09:47:07;;;;;;;5.07;4.67;;;;;;;23.14;34.91;94861.16;5060444;28;20245;-74
2022/04/30 09:55:03;;;;;;;8.77;4.00;;;;;;;22.37;35.98;94852.28;5071692;28;20467;-74
2022/04/30 09:57:32;;;;;;;5.80;4.60;;;;;;;23.34;33.99;94854.22;5085044;28;20436;-74
2022/04/30 09:59:59;;;;;;;5.37;3.83;;;;;;;22.83;34.76;94848.88;5076122;28;20180;-74
2022/04/30 10:02:27;;;;;;;6.20;3.80;;;;;;;23.70;33.44;94859.50;5076951;28;20436;-73
2022/04/30 10:04:55;;;;;;;4.60;4.20;;;;;;;23.81;33.11;94850.41;5083282;28;20421;-74
2022/04/30 10:07:24;;;;;;;4.30;3.87;;;;;;;24.10;32.45;94847.88;5076539;28;20435;-73
2022/04/30 10:10:07;;;;;;;8.33;3.60;;;;;;;23.78;32.32;94840.22;5061440;28;20462;-74
2022/04/30 10:12:42;;;;;;;15.23;5.60;;;;;;;23.05;33.41;94840.63;5093126;28;20515;-74
2022/04/30 10:15:25;;;;;;;6.20;3.90;;;;;;;22.69;34.21;94830.72;5079077;28;20470;-74
2022/04/30 10:17:54;;;;;;;6.00;3.67;;;;;;;24.25;31.84;94822.94;5074481;28;20531;-74
2022/04/30 10:20:33;;;;;;;4.50;4.13;;;;;;;23.12;33.19;94828.59;5073893;28;20444;-74
2022/04/30 10:22:59;;;;;;;6.03;4.27;;;;;;;23.33;33.13;94818.69;5066223;28;20444;-74
2022/04/30 10:25:33;;;;;;;4.77;4.10;;;;;;;22.89;33.35;94819.22;5066447;28;20420;-74
2022/04/30 10:28:04;;;;;;;27.13;5.70;;;;;;;23.66;32.21;94815.69;5072227;28;20432;-74
2022/04/30 10:30:29;;;;;;;5.40;4.10;;;;;;;23.67;32.21;94822.59;5065550;28;20524;-74
2022/04/30 10:33:00;;;;;;;4.20;3.90;;;;;;;23.58;32.13;94809.81;5074855;28;20441;-74
2022/04/30 10:35:37;;;;;;;3.50;3.30;;;;;;;23.42;32.39;94800.22;5066216;28;20170;-74
2022/04/30 10:38:21;;;;;;;4.07;3.77;;;;;;;23.35;32.42;94810.41;5078995;28;20436;-74
2022/04/30 10:40:48;;;;;;;4.90;4.50;;;;;;;23.26;32.67;94806.66;5048258;28;20891;-75
2022/04/30 10:43:19;;;;;;;4.83;4.43;;;;;;;22.51;34.07;94804.56;5075879;28;20428;-74
2022/04/30 10:45:45;;;;;;;6.23;4.33;;;;;;;23.34;32.84;94800.81;5066481;28;20468;-75
2022/04/30 10:48:11;;;;;;;5.83;4.50;;;;;;;23.26;33.09;94801.34;5081836;28;20447;-75
2022/04/30 10:50:36;;;;;;;4.37;4.00;;;;;;;22.98;33.65;94812.28;5067300;28;20464;-75
2022/04/30 10:53:03;;;;;;;5.93;4.40;;;;;;;22.50;34.82;94801.09;5074834;28;20186;-75
2022/04/30 10:55:29;;;;;;;22.93;6.53;;;;;;;22.35;34.95;94807.19;5067035;28;20218;-75
2022/04/30 10:57:55;;;;;;;4.10;3.80;;;;;;;21.99;35.98;94808.97;5053909;28;20444;-74
2022/04/30 11:00:23;;;;;;;5.17;4.67;;;;;;;22.63;34.81;94809.63;5074704;28;20506;-75
2022/04/30 11:02:49;;;;;;;5.23;4.83;;;;;;;22.52;35.07;94808.81;5066537;28;20209;-75
2022/04/30 11:05:22;;;;;;;4.73;4.40;;;;;;;22.46;34.75;94807.22;5070102;28;20436;-75
2022/04/30 11:07:49;;;;;;;5.93;4.43;;;;;;;22.45;34.94;94810.94;5050490;28;20696;-74
2022/04/30 11:10:15;;;;;;;4.37;4.07;;;;;;;23.31;34.03;94804.00;5082596;28;20468;-75
2022/04/30 11:12:41;;;;;;;4.27;4.03;;;;;;;23.75;32.47;94800.66;5068496;28;20467;-74
2022/04/30 11:15:07;;;;;;;4.70;4.33;;;;;;;23.53;32.30;94804.47;5070326;28;20425;-75
2022/04/30 11:17:43;;;;;;;5.00;4.50;;;;;;;22.86;33.22;94802.94;5076820;28;20553;-75
2022/04/30 11:20:09;;;;;;;4.63;4.27;;;;;;;23.11;33.22;94804.84;5076912;28;20408;-75
2022/04/30 11:22:34;;;;;;;13.13;4.70;;;;;;;24.28;31.25;94794.81;5085814;28;20451;-75
2022/04/30 11:25:00;;;;;;;5.03;4.67;;;;;;;24.60;30.31;94799.72;5053552;28;20428;-75
2022/04/30 11:27:29;;;;;;;3.87;3.57;;;;;;;23.91;31.44;94785.41;5076228;28;20182;-75
2022/04/30 11:29:58;;;;;;;4.23;3.83;;;;;;;23.85;31.53;94792.66;5068062;28;20195;-74
2022/04/30 11:32:29;;;;;;;4.40;4.10;;;;;;;24.00;31.42;94789.09;5081502;28;20535;-75
2022/04/30 11:34:59;;;;;;;3.67;3.40;;;;;;;23.61;31.57;94787.09;5066903;28;20441;-75
2022/04/30 11:37:25;;;;;;;3.73;3.43;;;;;;;22.85;32.91;94794.16;5075817;28;20429;-75
2022/04/30 11:39:50;;;;;;;4.20;3.73;;;;;;;22.79;32.99;94800.56;5065925;28;20485;-75
2022/04/30 11:42:16;;;;;;;3.93;3.63;;;;;;;23.12;32.61;94791.22;5047392;28;20206;-75
2022/04/30 11:44:43;;;;;;;4.20;3.80;;;;;;;23.44;32.56;94792.75;5066276;28;20254;-74
2022/04/30 11:47:09;;;;;;;5.70;4.50;;;;;;;22.52;33.41;94782.94;5085342;28;20303;-74
2022/04/30 11:49:35;;;;;;;4.23;3.83;;;;;;;22.83;33.41;94782.94;5079406;28;20460;-74
2022/04/30 11:52:01;;;;;;;3.43;3.13;;;;;;;23.39;32.53;94785.56;5078342;28;20190;-74
2022/04/30 11:54:28;;;;;;;2.53;2.43;;;;;;;22.84;33.41;94778.41;5065760;28;20461;-75
2022/04/30 11:56:57;;;;;;;3.60;3.13;;;;;;;23.66;32.78;94784.41;5078958;28;20502;-75
2022/04/30 11:59:49;;;;;;;4.40;2.90;;;;;;;24.29;31.74;94781.16;5077649;28;20562;-75